Time;durP1;ratioP1;P1;durP2;ratioP2;P2;SDS_P1;SDS_P2;PMS_P1;PMS_P2;Temp;Humidity;BMP_temperature;BMP_pressure;BME280_temperature;BME280_humidity;BME280_pressure;Samples;Min_cycle;Max_cycle;Signal;HPM_P1;HPM_P2
2022/07/05 00:00:28;;;;;;;4.97;1.77;;;;;;;;;;5323482;28;20102;-70
2022/07/05 00:03:00;;;;;;;3.63;1.88;;;;;;;;;;5324380;28;20330;-70
2022/07/05 00:05:31;;;;;;;3.63;1.88;;;;;;;;;;5324157;28;20030;-70
2022/07/05 00:08:03;;;;;;;5.38;2.17;;;;;;;;;;5323506;28;20488;-71
2022/07/05 00:10:35;;;;;;;5.70;2.25;;;;;;;;;;5324227;27;20035;-71
2022/07/05 00:13:06;;;;;;;4.90;1.92;;;;;;;;;;5323671;27;20008;-70
2022/07/05 00:15:38;;;;;;;5.57;1.83;;;;;;;;;;5324064;28;20057;-70
2022/07/05 00:18:09;;;;;;;4.37;2.37;;;;;;;;;;5323973;28;20016;-70
2022/07/05 00:20:40;;;;;;;3.33;1.77;;;;;;;;;;5323051;28;20265;-70
2022/07/05 00:23:11;;;;;;;4.53;2.13;;;;;;;;;;5323957;28;20371;-70
2022/07/05 00:25:42;;;;;;;2.33;1.88;;;;;;;;;;5324167;28;20667;-70
2022/07/05 00:28:15;;;;;;;3.97;1.80;;;;;;;;;;5323156;28;20011;-70
2022/07/05 00:30:46;;;;;;;7.10;2.08;;;;;;;;;;5323189;28;20624;-70
2022/07/05 00:33:17;;;;;;;2.40;1.95;;;;;;;;;;5323695;28;20052;-70
2022/07/05 00:35:48;;;;;;;3.33;1.98;;;;;;;;;;5323149;28;20027;-70
2022/07/05 00:38:19;;;;;;;2.95;2.15;;;;;;;;;;5323843;28;20113;-70
2022/07/05 00:40:50;;;;;;;4.77;2.00;;;;;;;;;;5323920;28;20396;-70
2022/07/05 00:43:22;;;;;;;4.65;2.78;;;;;;;;;;5323052;28;20264;-70
2022/07/05 00:45:53;;;;;;;3.90;2.58;;;;;;;;;;5323940;28;20310;-70
2022/07/05 00:48:24;;;;;;;6.10;2.70;;;;;;;;;;5322976;28;20459;-70
2022/07/05 00:50:55;;;;;;;3.27;2.03;;;;;;;;;;5323915;28;20027;-70
2022/07/05 00:53:27;;;;;;;4.30;2.33;;;;;;;;;;5323390;28;20270;-70
2022/07/05 00:55:58;;;;;;;3.60;2.20;;;;;;;;;;5323109;28;20772;-70
2022/07/05 00:58:31;;;;;;;3.78;2.15;;;;;;;;;;5323236;28;20016;-70
2022/07/05 01:01:04;;;;;;;4.55;2.63;;;;;;;;;;5323576;28;20277;-70
2022/07/05 01:03:35;;;;;;;4.00;2.55;;;;;;;;;;5322753;28;20113;-70
2022/07/05 01:06:09;;;;;;;3.55;2.50;;;;;;;;;;5323568;28;20103;-70
2022/07/05 01:08:41;;;;;;;6.03;2.42;;;;;;;;;;5323413;28;20007;-70
2022/07/05 01:11:13;;;;;;;4.70;2.47;;;;;;;;;;5322913;28;20474;-70
2022/07/05 01:13:44;;;;;;;2.72;1.95;;;;;;;;;;5323544;28;20027;-70
2022/07/05 01:16:16;;;;;;;2.53;2.00;;;;;;;;;;5322873;28;20024;-70
2022/07/05 01:18:47;;;;;;;4.28;2.20;;;;;;;;;;5322708;28;20078;-70
2022/07/05 01:21:19;;;;;;;2.97;1.88;;;;;;;;;;5322943;28;21012;-71
2022/07/05 01:23:51;;;;;;;3.05;2.00;;;;;;;;;;5322908;28;20098;-70
2022/07/05 01:26:22;;;;;;;2.92;1.73;;;;;;;;;;5322925;28;20099;-70
2022/07/05 01:28:53;;;;;;;2.97;2.30;;;;;;;;;;5323397;28;20047;-70
2022/07/05 01:31:24;;;;;;;7.27;2.20;;;;;;;;;;5322174;28;20371;-70
2022/07/05 01:33:55;;;;;;;3.13;1.92;;;;;;;;;;5323621;28;20295;-70
2022/07/05 01:36:27;;;;;;;5.70;2.40;;;;;;;;;;5323057;28;20038;-70
2022/07/05 01:38:58;;;;;;;5.22;2.58;;;;;;;;;;5322854;28;20015;-70
2022/07/05 01:41:30;;;;;;;3.10;2.47;;;;;;;;;;5324294;28;20024;-70
2022/07/05 01:44:02;;;;;;;3.33;2.63;;;;;;;;;;5327310;28;20090;-70
2022/07/05 01:46:37;;;;;;;2.92;2.50;;;;;;;;;;5326322;28;20467;-70
2022/07/05 01:49:10;;;;;;;3.33;2.50;;;;;;;;;;5327230;28;20016;-70
2022/07/05 01:51:51;;;;;;;5.10;2.28;;;;;;;;;;5326448;28;20065;-70
2022/07/05 01:54:23;;;;;;;4.63;3.22;;;;;;;;;;5326638;28;20020;-70
2022/07/05 01:56:54;;;;;;;4.32;2.60;;;;;;;;;;5326985;28;20040;-70
2022/07/05 01:59:26;;;;;;;4.38;3.42;;;;;;;;;;5325696;28;20022;-70
2022/07/05 02:01:57;;;;;;;5.22;2.95;;;;;;;;;;5327078;28;20019;-70
2022/07/05 02:04:29;;;;;;;6.50;2.73;;;;;;;;;;5326437;28;20022;-70
2022/07/05 02:07:03;;;;;;;2.92;2.13;;;;;;;;;;5325929;28;20755;-70
2022/07/05 02:09:35;;;;;;;4.32;2.13;;;;;;;;;;5326989;28;20551;-70
2022/07/05 02:12:06;;;;;;;6.40;2.22;;;;;;;;;;5326733;28;20103;-70
2022/07/05 02:14:37;;;;;;;2.90;2.08;;;;;;;;;;5325915;28;20503;-70
2022/07/05 02:17:08;;;;;;;4.55;2.30;;;;;;;;;;5326385;28;20032;-71
2022/07/05 02:19:39;;;;;;;4.90;2.77;;;;;;;;;;5325654;28;20573;-70
2022/07/05 02:22:12;;;;;;;4.13;2.47;;;;;;;;;;5326244;28;20658;-70
2022/07/05 02:24:43;;;;;;;3.92;2.55;;;;;;;;;;5326471;28;20042;-70
2022/07/05 02:27:14;;;;;;;4.63;2.97;;;;;;;;;;5325641;28;20019;-70
2022/07/05 02:29:46;;;;;;;4.78;2.80;;;;;;;;;;5326301;28;20318;-70
2022/07/05 02:32:17;;;;;;;4.28;2.80;;;;;;;;;;5326072;28;20047;-70
2022/07/05 02:34:48;;;;;;;5.28;3.10;;;;;;;;;;5325372;28;20258;-71
2022/07/05 02:37:19;;;;;;;3.72;3.28;;;;;;;;;;5325795;28;20297;-70
2022/07/05 02:39:50;;;;;;;3.78;3.08;;;;;;;;;;5326499;28;20012;-70
2022/07/05 02:42:21;;;;;;;4.57;3.13;;;;;;;;;;5324843;28;20402;-70
2022/07/05 02:44:53;;;;;;;5.00;3.40;;;;;;;;;;5326385;28;20265;-70
2022/07/05 02:47:24;;;;;;;6.38;4.07;;;;;;;;;;5325745;28;20102;-70
2022/07/05 02:49:57;;;;;;;4.43;3.20;;;;;;;;;;5325374;28;20257;-70
2022/07/05 02:52:28;;;;;;;6.65;4.32;;;;;;;;;;5325013;28;20269;-70
2022/07/05 02:54:59;;;;;;;5.82;3.85;;;;;;;;;;5324614;28;20012;-70
2022/07/05 02:57:30;;;;;;;4.10;3.70;;;;;;;;;;5325883;28;20023;-70
2022/07/05 03:00:03;;;;;;;5.85;3.28;;;;;;;;;;5325723;28;20018;-70
2022/07/05 03:02:34;;;;;;;8.65;4.07;;;;;;;;;;5324605;28;20451;-70
2022/07/05 03:05:06;;;;;;;6.55;4.13;;;;;;;;;;5325397;28;20020;-71
2022/07/05 03:07:37;;;;;;;7.97;3.80;;;;;;;;;;5325310;28;20408;-70
2022/07/05 03:10:08;;;;;;;4.68;3.90;;;;;;;;;;5324543;28;20024;-70
2022/07/05 03:12:39;;;;;;;4.72;4.10;;;;;;;;;;5325466;28;20376;-70
2022/07/05 03:15:10;;;;;;;4.00;3.55;;;;;;;;;;5325295;28;20077;-70
2022/07/05 03:17:42;;;;;;;4.85;3.30;;;;;;;;;;5324416;28;20171;-70
2022/07/05 03:20:13;;;;;;;4.73;4.23;;;;;;;;;;5324934;28;20501;-70
2022/07/05 03:22:44;;;;;;;6.07;3.72;;;;;;;;;;5324732;28;20628;-70
2022/07/05 03:25:15;;;;;;;5.60;4.00;;;;;;;;;;5324692;28;20020;-71
2022/07/05 03:27:46;;;;;;;9.87;4.50;;;;;;;;;;5325010;28;20367;-70
2022/07/05 03:30:18;;;;;;;6.43;4.00;;;;;;;;;;5324051;28;20440;-70
2022/07/05 03:32:49;;;;;;;4.30;3.90;;;;;;;;;;5325492;28;20420;-70
2022/07/05 03:35:20;;;;;;;4.93;3.83;;;;;;;;;;5324651;28;20011;-71
2022/07/05 03:37:51;;;;;;;6.10;4.40;;;;;;;;;;5324495;28;20027;-70
2022/07/05 03:40:23;;;;;;;7.38;4.30;;;;;;;;;;5324466;28;20024;-70
2022/07/05 03:42:54;;;;;;;5.55;4.13;;;;;;;;;;5325003;28;20270;-70
2022/07/05 03:45:25;;;;;;;7.07;3.92;;;;;;;;;;5323708;28;20021;-70
2022/07/05 03:47:57;;;;;;;6.13;4.28;;;;;;;;;;5325019;28;20374;-70
2022/07/05 03:50:28;;;;;;;6.28;4.47;;;;;;;;;;5324176;28;20266;-70
2022/07/05 03:52:59;;;;;;;5.15;4.35;;;;;;;;;;5323745;28;20445;-70
2022/07/05 03:55:31;;;;;;;5.20;3.92;;;;;;;;;;5324373;28;20033;-71
2022/07/05 03:58:02;;;;;;;6.60;3.93;;;;;;;;;;5323970;28;20257;-71
2022/07/05 04:00:34;;;;;;;6.15;4.50;;;;;;;;;;5324262;28;20273;-70
2022/07/05 04:03:05;;;;;;;5.05;4.65;;;;;;;;;;5324416;28;20522;-71
2022/07/05 04:05:37;;;;;;;6.60;4.80;;;;;;;;;;5323326;28;20195;-70
2022/07/05 04:08:08;;;;;;;5.70;4.72;;;;;;;;;;5324500;28;20012;-70
2022/07/05 04:10:39;;;;;;;6.97;4.67;;;;;;;;;;5324200;28;20015;-70
2022/07/05 04:13:10;;;;;;;7.70;5.00;;;;;;;;;;5323231;28;20852;-71
2022/07/05 04:15:42;;;;;;;7.32;5.07;;;;;;;;;;5324005;28;20833;-70
2022/07/05 04:18:13;;;;;;;7.35;5.53;;;;;;;;;;5323789;28;20258;-70
2022/07/05 04:20:44;;;;;;;6.15;5.28;;;;;;;;;;5323323;28;20117;-70
2022/07/05 04:23:15;;;;;;;5.82;5.22;;;;;;;;;;5324126;28;20318;-71
2022/07/05 04:25:46;;;;;;;7.30;5.93;;;;;;;;;;5324163;28;20040;-70
2022/07/05 04:28:18;;;;;;;7.00;6.18;;;;;;;;;;5323247;28;20011;-70
2022/07/05 04:30:49;;;;;;;7.30;6.50;;;;;;;;;;5324043;28;20023;-70
2022/07/05 04:33:20;;;;;;;10.63;6.38;;;;;;;;;;5322989;28;20015;-71
2022/07/05 04:35:51;;;;;;;7.80;6.13;;;;;;;;;;5324180;28;20096;-70
2022/07/05 04:38:22;;;;;;;7.93;7.18;;;;;;;;;;5323397;28;20264;-71
2022/07/05 04:40:54;;;;;;;8.50;6.90;;;;;;;;;;5323571;28;20486;-70
2022/07/05 04:43:25;;;;;;;6.88;6.18;;;;;;;;;;5323366;28;20008;-71
2022/07/05 04:45:56;;;;;;;9.18;6.70;;;;;;;;;;5323958;28;20020;-70
2022/07/05 04:48:27;;;;;;;8.70;6.80;;;;;;;;;;5322700;28;20481;-70
2022/07/05 04:50:58;;;;;;;9.35;6.63;;;;;;;;;;5324031;28;20019;-71
2022/07/05 04:53:30;;;;;;;10.30;6.60;;;;;;;;;;5323351;28;20016;-70
2022/07/05 04:56:01;;;;;;;7.90;6.38;;;;;;;;;;5322633;28;20053;-71
2022/07/05 04:58:32;;;;;;;7.80;6.25;;;;;;;;;;5323757;28;20775;-71
2022/07/05 05:01:03;;;;;;;7.13;6.43;;;;;;;;;;5323739;28;20050;-70
2022/07/05 05:03:34;;;;;;;8.07;6.53;;;;;;;;;;5322802;28;20265;-70
2022/07/05 05:06:06;;;;;;;7.80;6.60;;;;;;;;;;5323468;28;20261;-70
2022/07/05 05:08:37;;;;;;;8.68;6.25;;;;;;;;;;5322739;28;20016;-70
2022/07/05 05:11:08;;;;;;;6.65;6.05;;;;;;;;;;5323594;28;20024;-70
2022/07/05 05:13:39;;;;;;;7.30;6.38;;;;;;;;;;5323591;28;20265;-71
2022/07/05 05:16:11;;;;;;;8.82;6.13;;;;;;;;;;5323549;28;20031;-69
2022/07/05 05:18:42;;;;;;;6.53;5.93;;;;;;;;;;5327492;28;20054;-71
2022/07/05 05:21:13;;;;;;;9.30;6.50;;;;;;;;;;5327791;28;20023;-69
2022/07/05 05:23:44;;;;;;;8.93;6.13;;;;;;;;;;5327031;28;20650;-69
2022/07/05 05:26:15;;;;;;;10.00;6.00;;;;;;;;;;5327608;28;20265;-69
2022/07/05 05:28:47;;;;;;;6.53;5.93;;;;;;;;;;5327592;28;20283;-70
2022/07/05 05:31:18;;;;;;;5.82;5.15;;;;;;;;;;5326436;28;20016;-70
2022/07/05 05:33:49;;;;;;;6.55;5.60;;;;;;;;;;5327575;27;20008;-70
2022/07/05 05:36:21;;;;;;;6.68;5.50;;;;;;;;;;5326350;28;20425;-69
2022/07/05 05:38:52;;;;;;;9.18;6.05;;;;;;;;;;5327277;28;20773;-69
2022/07/05 05:41:23;;;;;;;7.53;6.13;;;;;;;;;;5326793;28;20728;-69
2022/07/05 05:43:54;;;;;;;7.40;5.82;;;;;;;;;;5326640;28;20577;-69
2022/07/05 05:46:25;;;;;;;8.00;6.50;;;;;;;;;;5327075;28;20019;-69
2022/07/05 05:48:58;;;;;;;7.10;6.47;;;;;;;;;;5327379;28;20262;-69
2022/07/05 05:51:30;;;;;;;8.98;6.95;;;;;;;;;;5325939;28;20352;-69
2022/07/05 05:54:01;;;;;;;8.00;6.45;;;;;;;;;;5326949;28;20103;-69
2022/07/05 05:56:32;;;;;;;7.38;6.30;;;;;;;;;;5326719;28;20028;-69
2022/07/05 05:59:03;;;;;;;8.07;6.40;;;;;;;;;;5326168;28;20023;-69
2022/07/05 06:01:34;;;;;;;7.32;6.20;;;;;;;;;;5326882;28;20019;-69
2022/07/05 06:04:06;;;;;;;7.32;6.63;;;;;;;;;;5326825;28;20016;-69
2022/07/05 06:06:37;;;;;;;10.05;6.72;;;;;;;;;;5325798;28;20273;-70
2022/07/05 06:09:08;;;;;;;10.40;6.20;;;;;;;;;;5326529;28;20264;-69
2022/07/05 06:11:39;;;;;;;7.65;5.55;;;;;;;;;;5325726;28;20054;-69
2022/07/05 06:14:11;;;;;;;7.25;5.95;;;;;;;;;;5326565;28;20302;-69
2022/07/05 06:16:42;;;;;;;6.55;5.95;;;;;;;;;;5326569;28;20293;-69
2022/07/05 06:19:14;;;;;;;7.22;6.47;;;;;;;;;;5325472;28;20122;-69
2022/07/05 06:21:45;;;;;;;11.52;7.00;;;;;;;;;;5326370;28;20258;-69
2022/07/05 06:24:16;;;;;;;8.85;6.95;;;;;;;;;;5326327;28;20016;-69
2022/07/05 06:26:47;;;;;;;6.33;5.70;;;;;;;;;;5325473;28;20771;-69
2022/07/05 06:29:18;;;;;;;6.50;5.90;;;;;;;;;;5325111;28;20635;-69
2022/07/05 06:31:49;;;;;;;9.53;5.87;;;;;;;;;;5326692;28;20358;-69
2022/07/05 06:34:20;;;;;;;8.53;6.03;;;;;;;;;;5325166;28;20374;-70
2022/07/05 06:36:52;;;;;;;8.23;6.57;;;;;;;;;;5326469;28;20380;-68
2022/07/05 06:39:23;;;;;;;8.95;6.50;;;;;;;;;;5325688;28;20326;-68
2022/07/05 06:41:54;;;;;;;7.60;5.83;;;;;;;;;;5325389;28;20261;-70
2022/07/05 06:44:25;;;;;;;6.57;5.45;;;;;;;;;;5325613;28;20264;-69
2022/07/05 06:46:56;;;;;;;7.68;5.78;;;;;;;;;;5325453;28;20035;-70
2022/07/05 06:49:27;;;;;;;7.32;5.70;;;;;;;;;;5325275;28;20024;-69
2022/07/05 06:51:59;;;;;;;6.77;5.30;;;;;;;;;;5326054;28;20379;-69
2022/07/05 06:54:30;;;;;;;7.45;5.15;;;;;;;;;;5319951;28;20388;-69
2022/07/05 06:57:01;;;;;;;6.53;5.57;;;;;;;;;;5325149;28;20023;-69
2022/07/05 06:59:32;;;;;;;7.00;5.20;;;;;;;;;;5325196;28;20743;-69
2022/07/05 07:02:03;;;;;;;8.32;4.88;;;;;;;;;;5324484;28;20107;-70
2022/07/05 07:04:35;;;;;;;6.87;4.67;;;;;;;;;;5325259;28;20270;-69
2022/07/05 07:09:17;;;;;;;5.77;4.93;;;;;;;;;;5325228;28;20590;-69
2022/07/05 07:10:01;;;;;;;7.82;5.57;;;;;;;;;;5324903;28;20795;-69
2022/07/05 07:12:32;;;;;;;8.13;4.80;;;;;;;;;;5325323;28;20062;-69
2022/07/05 07:15:03;;;;;;;6.45;4.57;;;;;;;;;;5324316;28;20050;-69
2022/07/05 07:17:35;;;;;;;5.72;3.60;;;;;;;;;;5324896;28;20035;-68
2022/07/05 07:20:06;;;;;;;6.43;3.67;;;;;;;;;;5325093;28;20436;-69
2022/07/05 07:22:37;;;;;;;8.27;4.55;;;;;;;;;;5324401;28;20296;-69
2022/07/05 07:25:09;;;;;;;5.65;4.00;;;;;;;;;;5324997;28;20016;-69
2022/07/05 07:27:41;;;;;;;6.65;4.00;;;;;;;;;;5324652;28;20027;-69
2022/07/05 07:30:13;;;;;;;6.53;3.40;;;;;;;;;;5324288;27;20015;-69
2022/07/05 07:32:45;;;;;;;10.65;2.90;;;;;;;;;;5325032;28;20030;-69
2022/07/05 07:35:16;;;;;;;8.15;3.17;;;;;;;;;;5324892;28;20024;-69
2022/07/05 07:37:48;;;;;;;9.55;3.60;;;;;;;;;;5323945;28;20026;-69
2022/07/05 07:40:19;;;;;;;10.20;2.72;;;;;;;;;;5323863;28;20020;-69
2022/07/05 07:42:50;;;;;;;10.40;3.60;;;;;;;;;;5325177;28;20466;-68
2022/07/05 07:45:21;;;;;;;12.40;3.50;;;;;;;;;;5324019;28;20016;-69
2022/07/05 07:47:52;;;;;;;12.20;3.20;;;;;;;;;;5324548;28;20274;-68
2022/07/05 07:50:23;;;;;;;13.32;2.97;;;;;;;;;;5322652;28;20020;-69
2022/07/05 07:52:55;;;;;;;8.10;2.83;;;;;;;;;;5322839;28;20015;-68
2022/07/05 07:55:26;;;;;;;11.98;3.28;;;;;;;;;;5323105;28;20386;-68
2022/07/05 07:57:57;;;;;;;12.40;2.73;;;;;;;;;;5323142;28;20404;-68
2022/07/05 08:00:28;;;;;;;9.53;2.47;;;;;;;;;;5324053;28;20322;-68
2022/07/05 08:02:59;;;;;;;9.40;3.30;;;;;;;;;;5324337;28;20356;-69
2022/07/05 08:05:30;;;;;;;9.07;3.58;;;;;;;;;;5323329;28;20326;-69
2022/07/05 08:08:02;;;;;;;12.18;4.35;;;;;;;;;;5324404;28;20023;-68
2022/07/05 08:10:33;;;;;;;16.47;4.63;;;;;;;;;;5324387;28;20104;-68
2022/07/05 08:13:04;;;;;;;13.63;4.82;;;;;;;;;;5323500;28;20265;-68
2022/07/05 08:15:35;;;;;;;11.20;3.83;;;;;;;;;;5324067;28;20107;-68
2022/07/05 08:23:46;;;;;;;14.27;5.03;;;;;;;;;;5323920;28;20020;-68
2022/07/05 08:26:17;;;;;;;8.73;4.63;;;;;;;;;;5323013;28;20015;-68
2022/07/05 08:28:48;;;;;;;13.60;5.80;;;;;;;;;;5323719;28;20030;-69
2022/07/05 08:31:20;;;;;;;9.57;5.50;;;;;;;;;;5323647;28;20625;-69
2022/07/05 08:33:51;;;;;;;14.82;6.47;;;;;;;;;;5323305;28;20280;-69
2022/07/05 08:36:22;;;;;;;15.07;6.38;;;;;;;;;;5323443;28;20497;-68
2022/07/05 08:38:54;;;;;;;11.23;5.65;;;;;;;;;;5323860;28;20019;-68
2022/07/05 08:41:25;;;;;;;11.60;5.33;;;;;;;;;;5322793;28;20382;-69
2022/07/05 08:43:57;;;;;;;10.57;5.20;;;;;;;;;;5324051;28;20262;-68
2022/07/05 08:46:30;;;;;;;12.45;5.43;;;;;;;;;;5322521;28;20606;-69
2022/07/05 08:49:04;;;;;;;9.18;4.25;;;;;;;;;;5323572;28;20080;-68
2022/07/05 08:51:39;;;;;;;11.50;4.68;;;;;;;;;;5323224;28;20059;-68
2022/07/05 08:54:11;;;;;;;11.20;4.60;;;;;;;;;;5322817;28;20416;-69
2022/07/05 08:56:43;;;;;;;11.73;4.10;;;;;;;;;;5323607;28;20035;-69
2022/07/05 08:59:14;;;;;;;11.88;3.70;;;;;;;;;;5323569;28;20065;-69
2022/07/05 09:01:45;;;;;;;9.23;2.92;;;;;;;;;;5322620;28;20118;-69
2022/07/05 09:04:17;;;;;;;10.63;2.40;;;;;;;;;;5323754;28;20085;-69
2022/07/05 09:06:50;;;;;;;7.60;2.55;;;;;;;;;;5323424;28;20020;-69
2022/07/05 09:09:22;;;;;;;6.60;1.77;;;;;;;;;;5322403;28;20099;-68
2022/07/05 09:11:55;;;;;;;8.73;1.65;;;;;;;;;;5323072;28;20094;-69
2022/07/05 09:14:26;;;;;;;7.80;1.83;;;;;;;;;;5322625;28;20016;-69
2022/07/05 09:16:57;;;;;;;5.07;1.37;;;;;;;;;;5323226;28;20031;-70
2022/07/05 09:19:30;;;;;;;14.60;1.40;;;;;;;;;;5323009;28;20281;-70
2022/07/05 09:22:04;;;;;;;6.68;2.20;;;;;;;;;;5322011;28;20284;-70
2022/07/05 09:24:45;;;;;;;7.80;1.70;;;;;;;;;;5323376;28;20470;-70
2022/07/05 09:27:16;;;;;;;6.80;0.98;;;;;;;;;;5323572;28;20026;-69
2022/07/05 09:29:57;;;;;;;11.00;1.50;;;;;;;;;;5322534;28;20012;-70
2022/07/05 09:32:30;;;;;;;9.73;1.35;;;;;;;;;;5323026;28;20012;-70
2022/07/05 09:35:20;;;;;;;4.63;1.10;;;;;;;;;;5323032;28;20590;-70
2022/07/05 09:37:51;;;;;;;10.25;1.77;;;;;;;;;;5322547;28;20039;-70
2022/07/05 09:40:22;;;;;;;7.38;1.33;;;;;;;;;;5322824;28;20459;-70
2022/07/05 09:43:09;;;;;;;8.47;1.57;;;;;;;;;;5322437;28;20494;-69
2022/07/05 09:45:49;;;;;;;7.78;1.42;;;;;;;;;;5323050;28;20016;-70
2022/07/05 09:48:21;;;;;;;5.72;1.10;;;;;;;;;;5322912;28;20026;-70
2022/07/05 09:51:03;;;;;;;4.93;0.90;;;;;;;;;;5322459;28;20106;-70
2022/07/05 09:53:54;;;;;;;4.25;0.80;;;;;;;;;;5322997;28;20069;-70
2022/07/05 09:56:29;;;;;;;4.22;0.77;;;;;;;;;;5322754;28;20055;-72
2022/07/05 09:59:13;;;;;;;8.32;1.08;;;;;;;;;;5322497;28;20027;-72
2022/07/05 10:01:45;;;;;;;6.50;0.65;;;;;;;;;;5323011;28;20041;-71
2022/07/05 10:04:16;;;;;;;4.68;1.17;;;;;;;;;;5325979;28;20101;-71
2022/07/05 10:06:47;;;;;;;4.18;0.70;;;;;;;;;;5326974;28;20019;-72
2022/07/05 10:09:19;;;;;;;4.07;0.70;;;;;;;;;;5326596;28;20026;-71
2022/07/05 10:11:51;;;;;;;3.33;0.90;;;;;;;;;;5326199;28;20023;-71
2022/07/05 10:14:24;;;;;;;4.07;0.80;;;;;;;;;;5326122;28;20374;-71
2022/07/05 10:17:02;;;;;;;6.30;0.85;;;;;;;;;;5326414;28;20036;-71
2022/07/05 10:19:41;;;;;;;4.78;0.93;;;;;;;;;;5325344;28;20043;-71
2022/07/05 10:22:12;;;;;;;6.60;1.33;;;;;;;;;;5326476;28;20459;-71
2022/07/05 10:24:44;;;;;;;6.82;1.13;;;;;;;;;;5325379;28;20088;-71
2022/07/05 10:27:16;;;;;;;6.07;1.40;;;;;;;;;;5326081;27;20489;-71
2022/07/05 10:29:48;;;;;;;3.78;0.98;;;;;;;;;;5326299;28;20126;-71
2022/07/05 10:32:22;;;;;;;9.88;0.80;;;;;;;;;;5324980;28;20099;-72
2022/07/05 10:34:53;;;;;;;2.95;0.68;;;;;;;;;;5326363;28;20356;-71
2022/07/05 10:37:27;;;;;;;3.45;1.10;;;;;;;;;;5325367;28;20034;-71
2022/07/05 10:39:59;;;;;;;3.13;0.63;;;;;;;;;;5325386;28;20020;-71
2022/07/05 10:42:46;;;;;;;4.00;0.65;;;;;;;;;;5325919;28;20031;-71
2022/07/05 10:45:24;;;;;;;2.72;0.70;;;;;;;;;;5325908;28;20023;-70
2022/07/05 10:48:13;;;;;;;2.72;0.80;;;;;;;;;;5325135;28;20338;-70
2022/07/05 10:50:46;;;;;;;4.65;0.88;;;;;;;;;;5315342;28;20466;-70
2022/07/05 10:53:21;;;;;;;4.03;1.02;;;;;;;;;;5305537;28;20035;-70
2022/07/05 10:55:58;;;;;;;5.18;0.90;;;;;;;;;;5303301;28;20036;-70
2022/07/05 10:58:36;;;;;;;3.90;0.60;;;;;;;;;;5320597;28;20490;-70
2022/07/05 11:01:19;;;;;;;4.25;0.70;;;;;;;;;;5323166;28;20031;-70
2022/07/05 11:04:03;;;;;;;2.75;0.50;;;;;;;;;;5324357;28;20027;-70
2022/07/05 11:06:41;;;;;;;2.72;0.47;;;;;;;;;;5324198;28;20037;-71
2022/07/05 11:09:14;;;;;;;3.88;0.50;;;;;;;;;;5323980;28;20448;-70
2022/07/05 11:11:51;;;;;;;3.65;0.55;;;;;;;;;;5324319;28;20356;-70
2022/07/05 11:14:22;;;;;;;3.67;0.60;;;;;;;;;;5322805;28;20094;-71
2022/07/05 11:17:09;;;;;;;3.30;0.75;;;;;;;;;;5324680;28;20107;-71
2022/07/05 11:19:58;;;;;;;6.22;0.50;;;;;;;;;;5324150;28;20455;-71
2022/07/05 11:22:30;;;;;;;5.38;0.50;;;;;;;;;;5323523;28;20182;-71
2022/07/05 11:25:02;;;;;;;5.40;0.80;;;;;;;;;;5324155;28;20104;-71
2022/07/05 11:27:34;;;;;;;3.08;0.50;;;;;;;;;;5323923;28;20019;-70
2022/07/05 11:30:21;;;;;;;2.42;0.50;;;;;;;;;;5323677;28;20369;-71
2022/07/05 11:32:53;;;;;;;2.97;0.50;;;;;;;;;;5324705;28;20043;-71
2022/07/05 11:35:32;;;;;;;4.00;0.60;;;;;;;;;;5323019;28;20112;-70
2022/07/05 11:38:04;;;;;;;2.60;0.50;;;;;;;;;;5323630;28;20455;-71
2022/07/05 11:40:37;;;;;;;3.75;0.50;;;;;;;;;;5323816;28;20062;-70
2022/07/05 11:43:09;;;;;;;3.50;0.60;;;;;;;;;;5323510;28;20043;-71
2022/07/05 11:45:40;;;;;;;2.17;0.45;;;;;;;;;;5324538;28;20108;-69
2022/07/05 11:48:16;;;;;;;3.00;0.50;;;;;;;;;;5324269;28;20094;-69
2022/07/05 11:50:47;;;;;;;4.22;0.60;;;;;;;;;;5323706;28;20015;-70
2022/07/05 11:53:28;;;;;;;2.43;0.63;;;;;;;;;;5323994;28;20476;-71
2022/07/05 11:56:00;;;;;;;3.03;0.60;;;;;;;;;;5324267;28;20685;-70
2022/07/05 11:58:32;;;;;;;3.63;0.80;;;;;;;;;;5323683;28;20087;-70
2022/07/05 12:01:05;;;;;;;4.10;0.70;;;;;;;;;;5324391;28;20478;-71
2022/07/05 12:03:39;;;;;;;2.88;0.80;;;;;;;;;;5323700;28;20045;-70
2022/07/05 12:06:13;;;;;;;2.45;0.73;;;;;;;;;;5324347;28;20047;-69
2022/07/05 12:08:44;;;;;;;3.70;1.15;;;;;;;;;;5324263;28;20026;-69
2022/07/05 12:14:05;;;;;;;1.83;0.50;;;;;;;;;;5324483;28;20024;-74
2022/07/05 12:16:36;;;;;;;2.53;0.50;;;;;;;;;;5323850;28;20023;-72
2022/07/05 12:19:08;;;;;;;6.30;0.50;;;;;;;;;;5323235;28;20411;-70
2022/07/05 12:21:40;;;;;;;4.22;0.30;;;;;;;;;;5323894;28;20289;-69
2022/07/05 12:24:13;;;;;;;5.23;0.40;;;;;;;;;;5322632;28;20026;-69
2022/07/05 12:26:45;;;;;;;3.40;0.40;;;;;;;;;;5321552;28;20132;-69
2022/07/05 12:29:16;;;;;;;5.28;0.55;;;;;;;;;;5323213;28;20514;-70
2022/07/05 12:32:03;;;;;;;5.30;0.82;;;;;;;;;;5322348;28;20023;-69
2022/07/05 12:34:35;;;;;;;3.20;0.40;;;;;;;;;;5323001;28;20022;-69
2022/07/05 12:37:06;;;;;;;2.03;0.30;;;;;;;;;;5323109;28;20027;-69
2022/07/05 12:39:37;;;;;;;2.15;0.30;;;;;;;;;;5322897;28;20012;-69
2022/07/05 12:42:08;;;;;;;10.50;0.50;;;;;;;;;;5323760;28;20027;-69
2022/07/05 12:44:39;;;;;;;1.63;0.30;;;;;;;;;;5323734;28;20292;-69
2022/07/05 12:47:10;;;;;;;4.45;0.43;;;;;;;;;;5323114;28;20115;-70
2022/07/05 12:49:54;;;;;;;3.90;0.38;;;;;;;;;;5323782;28;20012;-70
2022/07/05 12:52:26;;;;;;;5.40;0.47;;;;;;;;;;5322445;28;20145;-68
2022/07/05 12:58:02;;;;;;;5.13;0.30;;;;;;;;;;5323883;28;20261;-69
2022/07/05 13:00:33;;;;;;;1.50;0.30;;;;;;;;;;5322951;28;20386;-70
2022/07/05 13:03:05;;;;;;;2.28;0.30;;;;;;;;;;5323594;28;20027;-69
2022/07/05 13:05:36;;;;;;;7.53;0.30;;;;;;;;;;5323461;28;20128;-69
2022/07/05 13:08:07;;;;;;;1.98;0.40;;;;;;;;;;5322919;28;20281;-69
2022/07/05 13:10:45;;;;;;;3.10;0.20;;;;;;;;;;5323631;28;20103;-69
2022/07/05 13:13:20;;;;;;;2.28;0.30;;;;;;;;;;5323614;28;20370;-69
2022/07/05 13:15:51;;;;;;;5.38;0.30;;;;;;;;;;5323463;28;20039;-69
2022/07/05 13:18:25;;;;;;;3.50;0.50;;;;;;;;;;5322999;28;20373;-70
2022/07/05 13:20:57;;;;;;;3.13;0.40;;;;;;;;;;5322785;28;20769;-70
2022/07/05 13:23:28;;;;;;;5.23;0.30;;;;;;;;;;5323027;28;20041;-69
2022/07/05 13:25:59;;;;;;;3.78;0.28;;;;;;;;;;5323358;28;20019;-70
2022/07/05 13:28:30;;;;;;;2.83;0.30;;;;;;;;;;5322561;28;20023;-70
2022/07/05 13:31:01;;;;;;;7.00;0.37;;;;;;;;;;5323478;28;20289;-70
2022/07/05 13:33:32;;;;;;;2.77;0.30;;;;;;;;;;5323490;28;20399;-70
2022/07/05 13:36:04;;;;;;;3.63;0.50;;;;;;;;;;5321972;28;20301;-70
2022/07/05 13:38:35;;;;;;;6.13;0.30;;;;;;;;;;5326258;28;20016;-70
2022/07/05 13:41:06;;;;;;;3.70;0.40;;;;;;;;;;5327564;28;20352;-71
2022/07/05 13:43:38;;;;;;;3.00;0.47;;;;;;;;;;5326598;28;20065;-70
2022/07/05 13:46:09;;;;;;;2.20;0.30;;;;;;;;;;5327535;28;20030;-69
2022/07/05 13:48:41;;;;;;;5.82;0.40;;;;;;;;;;5326349;28;20061;-70
2022/07/05 13:51:12;;;;;;;8.23;0.40;;;;;;;;;;5326995;28;20498;-69
2022/07/05 13:53:43;;;;;;;2.07;0.30;;;;;;;;;;5327129;28;20085;-69
2022/07/05 13:56:17;;;;;;;3.70;0.30;;;;;;;;;;5326217;28;20342;-70
2022/07/05 13:58:48;;;;;;;3.63;0.20;;;;;;;;;;5327133;28;20016;-70
2022/07/05 14:01:24;;;;;;;3.03;0.20;;;;;;;;;;5326630;28;20026;-70
2022/07/05 14:04:00;;;;;;;2.33;0.20;;;;;;;;;;5326173;28;20015;-72
2022/07/05 14:06:32;;;;;;;3.88;0.30;;;;;;;;;;5327036;28;20035;-70
2022/07/05 14:09:03;;;;;;;3.33;0.20;;;;;;;;;;5326934;28;20020;-71
2022/07/05 14:11:35;;;;;;;5.82;0.30;;;;;;;;;;5325906;28;20107;-70
2022/07/05 14:14:06;;;;;;;1.83;0.20;;;;;;;;;;5326486;28;20043;-71
2022/07/05 14:16:37;;;;;;;4.07;0.20;;;;;;;;;;5326773;28;20434;-70
2022/07/05 14:19:08;;;;;;;4.22;0.15;;;;;;;;;;5325543;28;20289;-70
2022/07/05 14:21:44;;;;;;;3.33;0.20;;;;;;;;;;5326361;28;20055;-70
2022/07/05 14:24:15;;;;;;;1.75;0.20;;;;;;;;;;5325705;28;20691;-70
2022/07/05 14:26:46;;;;;;;0.95;0.20;;;;;;;;;;5326464;28;20107;-70
2022/07/05 14:29:17;;;;;;;3.33;0.20;;;;;;;;;;5322882;28;20012;-72
2022/07/05 14:31:48;;;;;;;3.87;0.70;;;;;;;;;;5315825;28;20020;-70
2022/07/05 14:34:20;;;;;;;1.70;0.20;;;;;;;;;;5319725;28;20312;-71
2022/07/05 14:36:51;;;;;;;1.10;0.20;;;;;;;;;;5325102;28;20122;-69
2022/07/05 14:39:22;;;;;;;0.75;0.10;;;;;;;;;;5324791;28;20504;-70
2022/07/05 14:41:54;;;;;;;1.40;0.40;;;;;;;;;;5326439;28;20034;-70
2022/07/05 14:44:25;;;;;;;2.55;0.20;;;;;;;;;;5325830;28;20269;-70
2022/07/05 14:46:56;;;;;;;1.83;0.20;;;;;;;;;;5325936;28;20016;-70
2022/07/05 14:49:28;;;;;;;3.15;0.20;;;;;;;;;;5324318;28;20253;-71
2022/07/05 14:51:59;;;;;;;2.43;0.20;;;;;;;;;;5325158;28;20011;-70
2022/07/05 14:54:30;;;;;;;5.07;0.30;;;;;;;;;;5326064;28;20736;-71
2022/07/05 14:57:01;;;;;;;3.60;0.20;;;;;;;;;;5325746;28;20296;-70
2022/07/05 14:59:32;;;;;;;2.63;0.20;;;;;;;;;;5324798;28;20020;-71
2022/07/05 15:02:05;;;;;;;2.10;0.20;;;;;;;;;;5325632;28;20287;-69
2022/07/05 15:04:36;;;;;;;2.63;0.20;;;;;;;;;;5325741;28;20270;-70
2022/07/05 15:07:07;;;;;;;2.53;0.30;;;;;;;;;;5324487;28;20064;-70
2022/07/05 15:09:38;;;;;;;2.60;0.23;;;;;;;;;;5325476;28;20736;-70
2022/07/05 15:12:09;;;;;;;2.33;0.20;;;;;;;;;;5324936;28;20455;-70
2022/07/05 15:14:41;;;;;;;3.85;0.30;;;;;;;;;;5324385;28;20347;-68
2022/07/05 15:17:12;;;;;;;4.70;0.30;;;;;;;;;;5325428;28;20031;-69
2022/07/05 15:19:43;;;;;;;2.70;0.30;;;;;;;;;;5325093;28;20285;-69
2022/07/05 15:22:16;;;;;;;2.23;0.20;;;;;;;;;;5324257;28;20051;-69